Time;durP1;ratioP1;P1;durP2;ratioP2;P2;SDS_P1;SDS_P2;PMS_P1;PMS_P2;Temp;Humidity;BMP_temperature;BMP_pressure;BME280_temperature;BME280_humidity;BME280_pressure;Samples;Min_cycle;Max_cycle;Signal;HPM_P1;HPM_P2
2023/02/03 00:00:06;;;;;;;17.90;10.52;;;3.10;99.90;;;;;;2105944;28;20185;-74
2023/02/03 00:01:11;;;;;;;20.77;10.65;;;3.10;99.90;;;;;;2099203;28;20107;-74
2023/02/03 00:02:12;;;;;;;18.48;10.43;;;3.10;99.90;;;;;;2103486;28;20509;-74
2023/02/03 00:03:12;;;;;;;19.92;10.30;;;3.10;99.90;;;;;;2106748;28;20397;-74
2023/02/03 00:04:13;;;;;;;18.10;10.80;;;3.10;99.90;;;;;;2107023;28;20043;-74
2023/02/03 00:05:13;;;;;;;19.40;10.40;;;3.10;99.90;;;;;;2106102;28;20035;-73
2023/02/03 00:06:14;;;;;;;18.55;10.27;;;3.10;99.90;;;;;;2111196;28;20036;-75
2023/02/03 00:07:15;;;;;;;19.10;11.05;;;3.20;99.90;;;;;;2106123;28;20060;-76
2023/02/03 00:08:17;;;;;;;20.90;11.20;;;3.20;99.90;;;;;;2106140;28;20042;-73
2023/02/03 00:09:18;;;;;;;19.00;10.90;;;3.20;99.90;;;;;;2104413;28;20020;-73
2023/02/03 00:10:20;;;;;;;20.38;11.07;;;3.20;99.90;;;;;;2101305;28;20036;-73
2023/02/03 00:11:21;;;;;;;21.17;11.63;;;3.20;99.90;;;;;;2104821;28;20471;-73
2023/02/03 00:12:22;;;;;;;20.88;11.23;;;3.20;99.90;;;;;;2101088;28;20398;-74
2023/02/03 00:13:24;;;;;;;19.35;10.65;;;3.20;99.90;;;;;;2104587;28;20034;-73
2023/02/03 00:14:25;;;;;;;17.70;11.18;;;3.20;99.90;;;;;;2105362;28;20081;-75
2023/02/03 00:15:26;;;;;;;19.00;10.18;;;3.20;99.90;;;;;;2100397;28;20095;-73
2023/02/03 00:16:26;;;;;;;16.35;10.13;;;3.20;99.90;;;;;;2102219;28;20036;-74
2023/02/03 00:17:27;;;;;;;17.05;10.02;;;3.20;99.90;;;;;;2103548;28;20464;-74
2023/02/03 00:18:27;;;;;;;16.35;9.93;;;3.20;99.90;;;;;;2105306;28;20267;-74
2023/02/03 00:19:28;;;;;;;15.30;10.10;;;3.20;99.90;;;;;;2104318;28;20512;-74
2023/02/03 00:20:29;;;;;;;15.85;9.40;;;3.30;99.90;;;;;;2105155;28;20541;-74
2023/02/03 00:21:29;;;;;;;13.88;9.57;;;3.30;99.90;;;;;;2105520;28;20020;-73
2023/02/03 00:22:30;;;;;;;15.20;9.32;;;3.30;99.90;;;;;;2110215;28;20063;-74
2023/02/03 00:23:31;;;;;;;18.15;9.93;;;3.30;99.90;;;;;;2099786;28;20040;-73
2023/02/03 00:24:32;;;;;;;18.02;9.95;;;3.30;99.90;;;;;;2088753;28;20781;-74
2023/02/03 00:25:33;;;;;;;14.65;9.27;;;3.30;99.90;;;;;;2106158;28;20016;-74
2023/02/03 00:26:33;;;;;;;15.55;9.43;;;3.30;99.90;;;;;;2103584;28;20089;-74
2023/02/03 00:27:34;;;;;;;17.10;9.63;;;3.30;99.90;;;;;;2106424;28;20274;-74
2023/02/03 00:28:35;;;;;;;18.98;10.95;;;3.30;99.90;;;;;;2100270;28;20039;-74
2023/02/03 00:29:35;;;;;;;17.48;10.00;;;3.30;99.90;;;;;;2101413;28;20036;-74
2023/02/03 00:30:36;;;;;;;15.40;9.98;;;3.20;99.90;;;;;;2104739;28;20027;-74
2023/02/03 00:31:37;;;;;;;19.60;10.75;;;3.20;99.90;;;;;;2097784;28;20059;-74
2023/02/03 00:32:39;;;;;;;18.20;10.02;;;3.20;99.90;;;;;;2104043;28;20132;-73
2023/02/03 00:33:40;;;;;;;18.48;10.60;;;3.20;99.90;;;;;;2097601;28;20444;-73
2023/02/03 00:34:40;;;;;;;23.83;11.80;;;3.30;99.90;;;;;;2102706;28;20114;-75
2023/02/03 00:35:41;;;;;;;30.35;12.70;;;3.20;99.90;;;;;;2102713;28;20054;-75
2023/02/03 00:36:41;;;;;;;37.15;13.65;;;3.20;99.90;;;;;;2109022;27;20019;-75
2023/02/03 00:37:42;;;;;;;25.60;11.57;;;3.20;99.90;;;;;;2113568;27;20417;-75
2023/02/03 00:38:43;;;;;;;28.73;11.93;;;3.20;99.90;;;;;;2102560;28;20047;-75
2023/02/03 00:39:43;;;;;;;26.80;12.00;;;3.10;99.90;;;;;;2102855;28;20136;-75
2023/02/03 00:40:52;;;;;;;22.77;11.20;;;3.10;99.90;;;;;;2105302;28;20494;-74
2023/02/03 00:41:52;;;;;;;21.70;11.07;;;3.20;99.90;;;;;;2104116;28;20032;-75
2023/02/03 00:42:53;;;;;;;21.55;10.32;;;3.20;99.90;;;;;;2106754;28;20016;-73
2023/02/03 00:43:54;;;;;;;20.48;10.70;;;3.20;99.90;;;;;;2104509;28;20555;-74
2023/02/03 00:44:54;;;;;;;20.80;11.35;;;3.20;99.90;;;;;;2100292;28;20460;-74
2023/02/03 00:45:55;;;;;;;24.25;11.25;;;3.20;99.90;;;;;;2104526;28;20024;-73
2023/02/03 00:46:56;;;;;;;23.45;11.55;;;3.20;99.90;;;;;;2107337;28;20019;-74
2023/02/03 00:47:57;;;;;;;21.80;10.82;;;3.20;99.90;;;;;;2101329;28;20023;-74
2023/02/03 00:48:57;;;;;;;18.88;10.55;;;3.10;99.90;;;;;;2092652;28;20024;-74
2023/02/03 00:49:58;;;;;;;23.00;11.23;;;3.20;99.90;;;;;;2094163;28;20025;-75
2023/02/03 00:50:58;;;;;;;23.33;10.65;;;3.20;99.90;;;;;;2097031;28;20197;-74
2023/02/03 00:51:59;;;;;;;21.10;9.60;;;3.20;99.90;;;;;;2099033;28;20328;-73
2023/02/03 00:53:00;;;;;;;22.40;10.57;;;3.20;99.90;;;;;;2107213;28;20650;-72
2023/02/03 00:54:00;;;;;;;22.23;10.07;;;3.20;99.90;;;;;;2106503;28;20562;-75
2023/02/03 00:55:01;;;;;;;18.17;9.60;;;3.20;99.90;;;;;;2107239;28;20035;-73
2023/02/03 00:56:02;;;;;;;16.05;9.73;;;3.20;99.90;;;;;;2105767;28;20127;-73
2023/02/03 00:57:02;;;;;;;17.17;9.73;;;3.20;99.90;;;;;;2102327;28;20026;-72
2023/02/03 00:58:03;;;;;;;19.40;9.00;;;3.20;99.90;;;;;;2093868;28;20032;-74
2023/02/03 00:59:05;;;;;;;18.23;8.88;;;3.20;99.90;;;;;;2102574;28;20055;-73
2023/02/03 01:00:07;;;;;;;21.95;10.20;;;3.20;99.90;;;;;;2105585;28;20036;-76
2023/02/03 01:01:09;;;;;;;33.72;10.95;;;3.20;99.90;;;;;;2101107;28;20035;-73
2023/02/03 01:02:10;;;;;;;27.88;10.75;;;3.20;99.90;;;;;;2104651;28;20024;-74
2023/02/03 01:03:10;;;;;;;31.20;10.95;;;3.10;99.90;;;;;;2093876;28;20111;-74
2023/02/03 01:04:11;;;;;;;33.58;11.68;;;3.10;99.90;;;;;;2106482;28;20258;-73
2023/02/03 01:05:12;;;;;;;34.60;11.30;;;3.00;99.90;;;;;;2106344;28;20031;-74
2023/02/03 01:06:15;;;;;;;34.65;11.77;;;3.00;99.90;;;;;;2102892;28;20024;-74
2023/02/03 01:07:16;;;;;;;28.83;11.10;;;2.90;99.90;;;;;;2101971;28;20139;-75
2023/02/03 01:08:16;;;;;;;30.73;11.13;;;2.90;99.90;;;;;;2102260;28;20069;-75
2023/02/03 01:09:17;;;;;;;31.40;11.30;;;3.00;99.90;;;;;;2104520;28;20028;-74
2023/02/03 01:10:18;;;;;;;37.92;11.30;;;2.90;99.90;;;;;;2103199;28;20056;-75
2023/02/03 01:11:22;;;;;;;24.83;10.40;;;2.90;99.90;;;;;;2091213;28;20036;-74
2023/02/03 01:12:23;;;;;;;27.42;10.30;;;2.90;99.90;;;;;;2102339;28;20032;-73
2023/02/03 01:13:23;;;;;;;32.83;11.10;;;2.90;99.90;;;;;;2102889;28;20036;-73
2023/02/03 01:14:24;;;;;;;30.33;10.32;;;3.00;99.90;;;;;;2104353;28;20034;-74
2023/02/03 01:15:24;;;;;;;23.95;10.15;;;3.00;99.90;;;;;;2103863;28;20024;-74
2023/02/03 01:16:29;;;;;;;18.48;8.82;;;3.00;99.90;;;;;;2104536;28;20024;-73
2023/02/03 01:17:30;;;;;;;21.38;9.25;;;3.00;99.90;;;;;;2102394;28;20036;-75
2023/02/03 01:18:30;;;;;;;35.78;9.88;;;3.00;99.90;;;;;;2107283;28;20023;-74
2023/02/03 01:19:31;;;;;;;23.73;9.70;;;3.00;99.90;;;;;;2098109;28;20113;-74
2023/02/03 01:20:33;;;;;;;32.28;11.07;;;3.00;99.90;;;;;;2097161;28;20039;-74
2023/02/03 01:21:35;;;;;;;24.00;9.93;;;3.00;99.90;;;;;;2103322;28;20111;-74
2023/02/03 01:22:36;;;;;;;22.05;8.75;;;2.90;99.90;;;;;;2102637;28;20027;-74
2023/02/03 01:23:36;;;;;;;26.35;9.68;;;3.00;99.90;;;;;;2102965;28;20039;-74
2023/02/03 01:24:37;;;;;;;22.60;8.93;;;3.00;99.90;;;;;;2106524;28;20088;-74
2023/02/03 01:25:38;;;;;;;21.35;8.52;;;3.00;99.90;;;;;;2102749;28;20024;-75
2023/02/03 01:26:41;;;;;;;22.17;8.63;;;3.00;99.90;;;;;;2099577;28;20008;-75
2023/02/03 01:27:42;;;;;;;25.25;8.90;;;3.00;99.90;;;;;;2102183;28;20024;-75
2023/02/03 01:28:43;;;;;;;19.73;8.73;;;3.10;99.90;;;;;;2102843;28;20583;-75
2023/02/03 01:29:45;;;;;;;18.77;8.13;;;3.10;99.90;;;;;;2102642;28;20028;-74
2023/02/03 01:30:45;;;;;;;31.75;9.40;;;3.10;99.90;;;;;;2096196;28;20326;-74
2023/02/03 01:31:46;;;;;;;23.63;8.75;;;3.10;99.90;;;;;;2098048;28;20032;-75
2023/02/03 01:32:47;;;;;;;22.15;8.50;;;3.00;99.90;;;;;;2096920;28;20044;-75
2023/02/03 01:33:47;;;;;;;31.75;9.00;;;3.10;99.90;;;;;;2099196;28;20031;-74
2023/02/03 01:34:48;;;;;;;25.85;8.02;;;3.10;99.90;;;;;;2103286;28;20553;-75
2023/02/03 01:35:49;;;;;;;31.05;9.40;;;3.00;99.90;;;;;;2102871;28;20030;-74
2023/02/03 01:36:50;;;;;;;24.27;8.77;;;3.00;99.90;;;;;;2102513;28;20486;-75
2023/02/03 01:37:50;;;;;;;24.27;8.55;;;2.90;99.90;;;;;;2107234;28;20055;-74
2023/02/03 01:38:52;;;;;;;27.42;9.07;;;2.90;99.90;;;;;;2102586;28;20016;-74
2023/02/03 01:39:52;;;;;;;23.50;8.63;;;2.90;99.90;;;;;;2102633;28;20088;-74
2023/02/03 01:40:53;;;;;;;23.60;8.65;;;2.80;99.90;;;;;;2105771;28;20024;-76
2023/02/03 01:41:55;;;;;;;22.33;8.98;;;2.80;99.90;;;;;;2098794;28;20032;-76
2023/02/03 01:42:56;;;;;;;24.73;8.98;;;2.80;99.90;;;;;;2103492;28;20007;-74
2023/02/03 01:43:59;;;;;;;25.02;8.40;;;2.80;99.90;;;;;;2100031;28;20406;-76
2023/02/03 01:45:00;;;;;;;27.33;8.82;;;2.80;99.90;;;;;;2105742;28;20405;-73
2023/02/03 01:46:16;;;;;;;31.67;8.63;;;2.80;99.90;;;;;;2101671;28;20061;-74
2023/02/03 01:47:16;;;;;;;30.45;8.63;;;2.80;99.90;;;;;;2099131;28;20082;-74
2023/02/03 01:48:17;;;;;;;24.88;8.63;;;2.70;99.90;;;;;;2093408;28;20029;-74
2023/02/03 01:49:32;;;;;;;27.75;8.35;;;2.80;99.90;;;;;;2096218;28;20065;-74
2023/02/03 01:50:35;;;;;;;27.75;8.30;;;2.80;99.90;;;;;;2095690;28;20036;-73
2023/02/03 01:51:39;;;;;;;29.02;9.25;;;2.80;99.90;;;;;;2102069;28;20031;-73
2023/02/03 01:52:42;;;;;;;27.30;8.55;;;2.80;99.90;;;;;;2093623;28;20083;-74
2023/02/03 01:53:43;;;;;;;24.30;8.45;;;2.80;99.90;;;;;;2093894;28;20024;-74
2023/02/03 01:54:46;;;;;;;27.77;8.52;;;2.70;99.90;;;;;;2097317;28;20086;-74
2023/02/03 01:55:49;;;;;;;30.05;9.25;;;2.70;99.90;;;;;;2101842;28;20024;-74
2023/02/03 01:56:55;;;;;;;30.15;9.15;;;2.70;99.90;;;;;;2104043;28;20027;-75
2023/02/03 01:58:03;;;;;;;29.60;8.80;;;2.70;99.90;;;;;;2096523;28;20196;-74
2023/02/03 01:59:04;;;;;;;28.70;8.85;;;2.70;99.90;;;;;;2095971;28;20028;-75
2023/02/03 02:00:06;;;;;;;25.85;8.57;;;2.70;99.90;;;;;;2101414;28;20439;-74
2023/02/03 02:01:14;;;;;;;31.25;8.82;;;2.70;99.90;;;;;;2104302;28;20193;-74
2023/02/03 02:02:14;;;;;;;25.38;8.20;;;2.80;99.90;;;;;;2103831;28;20031;-75
2023/02/03 02:03:17;;;;;;;24.58;7.88;;;2.70;99.90;;;;;;2103888;28;20019;-73
2023/02/03 02:04:19;;;;;;;28.65;8.48;;;2.70;99.90;;;;;;2103725;28;20047;-74
2023/02/03 02:05:36;;;;;;;24.23;8.27;;;2.70;99.90;;;;;;2105373;28;20142;-74
2023/02/03 02:06:37;;;;;;;16.60;6.60;;;2.70;99.90;;;;;;2095956;28;20031;-74
2023/02/03 02:07:40;;;;;;;20.98;6.75;;;2.80;99.90;;;;;;2100835;28;20047;-74
2023/02/03 02:08:43;;;;;;;18.67;7.20;;;2.80;99.90;;;;;;2098951;28;20020;-74
2023/02/03 02:09:46;;;;;;;21.98;6.95;;;2.90;99.90;;;;;;2098963;28;20020;-74
2023/02/03 02:10:49;;;;;;;16.17;6.30;;;2.90;99.90;;;;;;2090253;28;20021;-74
2023/02/03 02:11:51;;;;;;;11.65;5.55;;;2.90;99.90;;;;;;2081989;28;20490;-74
2023/02/03 02:12:55;;;;;;;13.80;6.10;;;3.00;99.90;;;;;;2073510;28;20021;-74
2023/02/03 02:14:00;;;;;;;12.63;6.00;;;3.00;99.90;;;;;;2082523;28;20025;-73
2023/02/03 02:15:01;;;;;;;13.00;5.60;;;3.00;99.90;;;;;;2088258;28;20075;-74
2023/02/03 02:16:16;;;;;;;11.15;5.25;;;3.00;99.90;;;;;;2095384;28;20316;-74
2023/02/03 02:17:53;;;;;;;10.82;4.82;;;3.00;99.90;;;;;;2096373;28;20607;-74
2023/02/03 02:19:41;;;;;;;10.23;4.93;;;3.10;99.90;;;;;;2097911;28;20673;-74
2023/02/03 02:21:03;;;;;;;11.27;5.32;;;3.10;99.90;;;;;;2091843;28;20028;-74
2023/02/03 02:22:27;;;;;;;10.18;5.10;;;3.10;99.90;;;;;;2088826;28;20499;-74
2023/02/03 02:23:55;;;;;;;13.82;4.88;;;3.10;99.90;;;;;;2054061;28;20454;-73
2023/02/03 02:25:28;;;;;;;10.90;4.43;;;3.10;99.90;;;;;;2082315;28;20078;-76
2023/02/03 02:26:54;;;;;;;10.65;4.20;;;3.20;99.90;;;;;;2094474;28;20027;-74
2023/02/03 02:28:15;;;;;;;12.77;4.97;;;3.10;99.90;;;;;;2090129;28;20103;-74
2023/02/03 02:29:27;;;;;;;15.45;5.10;;;3.10;99.90;;;;;;2081350;28;20539;-73
2023/02/03 02:30:38;;;;;;;13.15;4.88;;;3.10;99.90;;;;;;2083307;28;20472;-74
2023/02/03 02:32:19;;;;;;;15.73;4.97;;;3.10;99.90;;;;;;2083141;28;22793;-74
2023/02/03 02:33:32;;;;;;;11.07;4.80;;;3.10;99.90;;;;;;2085920;28;20164;-72
2023/02/03 02:35:11;;;;;;;15.73;4.80;;;3.10;99.90;;;;;;2090997;28;20036;-74
2023/02/03 02:36:35;;;;;;;11.27;4.28;;;3.10;99.90;;;;;;2083989;28;20028;-74
2023/02/03 02:38:03;;;;;;;12.85;4.40;;;3.10;99.90;;;;;;2090227;28;20048;-74
2023/02/03 02:39:14;;;;;;;9.43;4.40;;;3.10;99.90;;;;;;2085384;28;20029;-74
2023/02/03 02:40:20;;;;;;;15.30;4.63;;;3.20;99.90;;;;;;2090032;28;20461;-74
2023/02/03 02:41:47;;;;;;;11.30;4.95;;;3.20;99.90;;;;;;2088108;28;20565;-74
2023/02/03 02:43:00;;;;;;;17.90;5.10;;;3.10;99.90;;;;;;2060089;28;20501;-74
2023/02/03 02:44:16;;;;;;;21.20;5.32;;;3.10;99.90;;;;;;2081563;28;20620;-74
2023/02/03 02:45:26;;;;;;;12.30;5.18;;;3.00;99.90;;;;;;2091587;28;20063;-73
2023/02/03 02:46:36;;;;;;;14.75;5.25;;;3.10;99.90;;;;;;2089971;28;20391;-73
2023/02/03 02:47:39;;;;;;;17.52;5.10;;;3.00;99.90;;;;;;2089693;28;20028;-73
2023/02/03 02:48:58;;;;;;;15.00;4.90;;;3.00;99.90;;;;;;2081523;28;20025;-72
2023/02/03 02:50:12;;;;;;;14.10;5.32;;;3.10;99.90;;;;;;2081645;28;20029;-73
2023/02/03 02:51:14;;;;;;;16.63;4.95;;;3.10;99.90;;;;;;2083528;28;20444;-73
2023/02/03 02:52:17;;;;;;;13.70;4.78;;;3.10;99.90;;;;;;2090340;28;20168;-73
2023/02/03 02:53:20;;;;;;;11.35;4.63;;;3.20;99.90;;;;;;2087394;28;20070;-69
2023/02/03 02:54:25;;;;;;;11.82;4.53;;;3.20;99.90;;;;;;2079957;28;20025;-69
2023/02/03 02:55:31;;;;;;;8.30;4.93;;;3.20;99.90;;;;;;2081712;28;20519;-68
2023/02/03 02:56:38;;;;;;;12.45;4.45;;;3.20;99.90;;;;;;2081842;28;20039;-68
2023/02/03 02:57:39;;;;;;;11.88;4.63;;;3.20;99.90;;;;;;2082817;28;20028;-68
2023/02/03 02:58:43;;;;;;;8.98;4.50;;;3.30;99.90;;;;;;2082302;28;20028;-68
2023/02/03 02:59:45;;;;;;;11.90;4.35;;;3.20;99.90;;;;;;2102552;28;20111;-69
2023/02/03 03:00:47;;;;;;;10.25;4.55;;;3.30;99.90;;;;;;2101250;28;20023;-69
2023/02/03 03:01:47;;;;;;;11.25;4.85;;;3.30;99.90;;;;;;2100008;28;20174;-68
2023/02/03 03:02:48;;;;;;;7.90;4.20;;;3.30;99.90;;;;;;2113208;28;20027;-73
2023/02/03 03:03:48;;;;;;;11.65;5.15;;;3.30;99.90;;;;;;2110991;28;20544;-72
2023/02/03 03:04:50;;;;;;;9.85;4.40;;;3.30;99.90;;;;;;2104679;28;20474;-68
2023/02/03 03:05:58;;;;;;;8.88;4.28;;;3.30;99.90;;;;;;2096075;28;20032;-69
2023/02/03 03:07:07;;;;;;;10.07;4.70;;;3.30;99.90;;;;;;2105349;28;20031;-69
2023/02/03 03:08:11;;;;;;;16.65;5.35;;;3.30;99.90;;;;;;2094182;28;20031;-68
2023/02/03 03:09:18;;;;;;;13.43;5.25;;;3.30;99.90;;;;;;2087025;28;20025;-68
2023/02/03 03:10:23;;;;;;;12.35;5.50;;;3.30;99.90;;;;;;2092640;28;20057;-69
2023/02/03 03:11:30;;;;;;;8.35;5.00;;;3.30;99.90;;;;;;2105841;27;20026;-68
2023/02/03 03:12:41;;;;;;;15.73;5.78;;;3.30;99.90;;;;;;2104675;28;20028;-68
2023/02/03 03:13:48;;;;;;;11.52;5.50;;;3.30;99.90;;;;;;2102410;27;20031;-68
2023/02/03 03:14:54;;;;;;;12.05;5.40;;;3.40;99.90;;;;;;2108792;28;20293;-69
2023/02/03 03:15:56;;;;;;;12.07;5.13;;;3.40;99.90;;;;;;2099732;28;20031;-68
2023/02/03 03:17:03;;;;;;;8.63;4.78;;;3.40;99.90;;;;;;2099565;28;20055;-68
2023/02/03 03:18:14;;;;;;;11.15;4.85;;;3.40;99.90;;;;;;2106837;27;20031;-68
2023/02/03 03:19:19;;;;;;;11.02;5.10;;;3.40;99.90;;;;;;2104991;28;20034;-68
2023/02/03 03:20:25;;;;;;;13.30;5.32;;;3.40;99.90;;;;;;2099394;28;20058;-69
2023/02/03 03:21:36;;;;;;;11.10;4.82;;;3.40;99.90;;;;;;2115840;27;20055;-68
2023/02/03 03:22:45;;;;;;;10.10;4.80;;;3.40;99.90;;;;;;2100774;28;20020;-69
2023/02/03 03:23:50;;;;;;;8.75;4.93;;;3.50;99.90;;;;;;2103008;27;20047;-69
2023/02/03 03:24:57;;;;;;;9.60;4.65;;;3.50;99.90;;;;;;2117086;27;20039;-68
2023/02/03 03:26:09;;;;;;;9.45;4.70;;;3.50;99.90;;;;;;2101042;28;20090;-69
2023/02/03 03:27:21;;;;;;;7.22;4.45;;;3.50;99.90;;;;;;2101391;28;20223;-69
2023/02/03 03:28:27;;;;;;;10.23;5.10;;;3.60;99.90;;;;;;2116605;27;20027;-69
2023/02/03 03:29:46;;;;;;;9.05;5.45;;;3.60;99.90;;;;;;2107705;28;20077;-68
2023/02/03 03:30:46;;;;;;;13.38;6.78;;;3.60;99.90;;;;;;2102321;28;20249;-68
2023/02/03 03:31:47;;;;;;;12.02;6.90;;;3.60;99.90;;;;;;2108487;27;20424;-68
2023/02/03 03:32:49;;;;;;;15.13;6.80;;;3.70;99.90;;;;;;2110606;27;20043;-68
2023/02/03 03:33:49;;;;;;;10.63;6.40;;;3.60;99.90;;;;;;2112950;27;20019;-69
2023/02/03 03:34:51;;;;;;;11.70;6.32;;;3.60;99.90;;;;;;2097024;28;20423;-68
2023/02/03 03:36:14;;;;;;;12.02;6.55;;;3.70;99.90;;;;;;2091945;28;20878;-68
2023/02/03 03:37:26;;;;;;;10.85;5.93;;;3.70;99.90;;;;;;2105751;28;20156;-68
2023/02/03 03:38:43;;;;;;;9.07;6.32;;;3.70;99.90;;;;;;2113539;27;20594;-69
2023/02/03 03:39:55;;;;;;;9.73;6.30;;;3.80;99.90;;;;;;2111403;27;20043;-69
2023/02/03 03:41:04;;;;;;;9.73;6.20;;;3.80;99.90;;;;;;2110004;27;20034;-69
2023/02/03 03:42:23;;;;;;;10.45;6.50;;;3.90;99.90;;;;;;2109285;27;20028;-69
2023/02/03 03:43:28;;;;;;;10.50;6.43;;;3.90;99.90;;;;;;2109871;27;20522;-69
2023/02/03 03:44:35;;;;;;;12.98;7.28;;;4.00;99.90;;;;;;2107523;27;20023;-70
2023/02/03 03:45:50;;;;;;;12.35;7.20;;;4.00;99.90;;;;;;2101833;28;20098;-69
2023/02/03 03:47:01;;;;;;;11.30;6.85;;;4.00;99.90;;;;;;2104502;27;20032;-69
2023/02/03 03:48:12;;;;;;;10.55;6.75;;;4.00;99.90;;;;;;2115644;27;20027;-70
2023/02/03 03:49:13;;;;;;;;;;;4.10;99.90;;;;;;2100144;28;20035;-68
2023/02/03 03:50:20;;;;;;;11.18;6.65;;;4.10;99.90;;;;;;2099603;28;19955;-68
2023/02/03 03:51:33;;;;;;;9.35;6.10;;;4.10;99.90;;;;;;2109692;28;20660;-68
2023/02/03 03:52:35;;;;;;;10.02;6.20;;;4.10;99.90;;;;;;2114059;27;20062;-68
2023/02/03 03:53:39;;;;;;;8.38;6.22;;;4.10;99.90;;;;;;2119252;27;20810;-68
2023/02/03 03:54:42;;;;;;;11.32;7.30;;;4.10;99.90;;;;;;2117266;27;20023;-68
2023/02/03 03:55:47;;;;;;;11.27;7.20;;;4.20;99.90;;;;;;2114673;27;20030;-68
2023/02/03 03:57:04;;;;;;;11.20;6.82;;;4.20;99.90;;;;;;2113814;27;20079;-68
2023/02/03 03:58:12;;;;;;;8.98;6.43;;;4.20;99.90;;;;;;2113552;27;20035;-68
2023/02/03 03:59:15;;;;;;;8.60;6.28;;;4.20;99.90;;;;;;2113816;27;20035;-70
2023/02/03 04:00:19;;;;;;;8.98;6.55;;;4.20;99.90;;;;;;2113497;27;20031;-68
2023/02/03 04:01:22;;;;;;;9.82;6.13;;;4.30;99.90;;;;;;2113304;27;20019;-69
2023/02/03 04:02:23;;;;;;;9.00;6.15;;;4.30;99.90;;;;;;2099623;28;20524;-68
2023/02/03 04:03:31;;;;;;;10.40;7.03;;;4.30;99.90;;;;;;2099738;28;20051;-68
2023/02/03 04:04:35;;;;;;;10.68;7.45;;;4.30;99.90;;;;;;2103038;28;20119;-69
2023/02/03 04:05:38;;;;;;;10.25;7.47;;;4.30;99.90;;;;;;2103597;27;20450;-69
2023/02/03 04:06:39;;;;;;;12.82;7.97;;;4.20;99.90;;;;;;2101126;28;20043;-69
2023/02/03 04:07:42;;;;;;;12.25;8.23;;;4.30;99.90;;;;;;2096373;28;20025;-69
2023/02/03 04:08:42;;;;;;;11.20;7.50;;;4.30;99.90;;;;;;2114443;27;20127;-69
2023/02/03 04:09:43;;;;;;;16.02;9.23;;;4.30;99.90;;;;;;2112029;27;20115;-69
2023/02/03 04:10:43;;;;;;;15.75;9.38;;;4.40;99.90;;;;;;2116682;27;20031;-70
2023/02/03 04:12:03;;;;;;;14.10;8.52;;;4.40;99.90;;;;;;2119208;27;20027;-69
2023/02/03 04:13:05;;;;;;;12.00;7.88;;;4.40;99.90;;;;;;2105598;27;20035;-69
2023/02/03 04:14:05;;;;;;;13.48;8.20;;;4.40;99.90;;;;;;2109925;28;20024;-69
2023/02/03 04:15:06;;;;;;;16.50;10.18;;;4.40;99.90;;;;;;2091118;28;20069;-69
2023/02/03 04:16:07;;;;;;;17.13;10.70;;;4.40;99.90;;;;;;2099295;28;20036;-69
2023/02/03 04:17:08;;;;;;;17.13;10.45;;;4.50;99.90;;;;;;2113202;27;20122;-70
2023/02/03 04:18:12;;;;;;;17.33;11.50;;;4.50;99.90;;;;;;2109701;28;20031;-69
2023/02/03 04:19:12;;;;;;;19.70;11.85;;;4.60;99.90;;;;;;2088915;28;20199;-69
2023/02/03 04:20:13;;;;;;;17.00;11.25;;;4.80;99.90;;;;;;2095651;28;20023;-69
2023/02/03 04:21:14;;;;;;;16.38;11.13;;;4.80;99.90;;;;;;2101799;28;20036;-69
2023/02/03 04:22:14;;;;;;;16.48;10.27;;;4.90;99.90;;;;;;2110435;28;20538;-69
2023/02/03 04:23:15;;;;;;;16.13;10.68;;;5.00;99.90;;;;;;2102427;28;20508;-69
2023/02/03 04:24:16;;;;;;;15.13;10.32;;;5.00;99.90;;;;;;2103048;28;20035;-69
2023/02/03 04:25:16;;;;;;;14.90;10.32;;;5.00;99.90;;;;;;2116290;27;20046;-69
2023/02/03 04:26:17;;;;;;;13.45;9.07;;;5.00;99.90;;;;;;2103356;28;20047;-69
2023/02/03 04:27:18;;;;;;;13.95;9.40;;;5.10;99.90;;;;;;2103987;28;20036;-69
2023/02/03 04:28:18;;;;;;;12.75;8.75;;;5.10;99.90;;;;;;2110329;27;20035;-69
2023/02/03 04:29:19;;;;;;;12.13;8.50;;;5.20;99.90;;;;;;2101313;28;20039;-69
2023/02/03 04:30:19;;;;;;;11.60;8.70;;;5.20;99.90;;;;;;2103641;28;20032;-69
2023/02/03 04:31:20;;;;;;;11.40;8.02;;;5.20;99.90;;;;;;2103985;28;20324;-69
2023/02/03 04:32:20;;;;;;;11.55;8.20;;;5.30;99.90;;;;;;2101043;28;20024;-69
2023/02/03 04:33:21;;;;;;;11.23;8.20;;;5.30;99.90;;;;;;2108233;27;20031;-69
2023/02/03 04:34:21;;;;;;;12.15;8.32;;;5.40;99.90;;;;;;2114340;27;20035;-69
2023/02/03 04:35:22;;;;;;;11.95;8.50;;;5.40;99.90;;;;;;2118490;27;20456;-69
2023/02/03 04:36:23;;;;;;;10.35;7.70;;;5.40;99.90;;;;;;2108396;27;20027;-69
2023/02/03 04:37:25;;;;;;;10.95;7.90;;;5.50;99.90;;;;;;2100221;28;20533;-69
2023/02/03 04:38:26;;;;;;;10.30;7.88;;;5.50;99.90;;;;;;2104111;28;20117;-69
2023/02/03 04:39:26;;;;;;;10.95;8.15;;;5.50;99.90;;;;;;2114920;27;20485;-69
2023/02/03 04:40:27;;;;;;;11.57;8.70;;;5.50;99.90;;;;;;2102470;28;20027;-70
2023/02/03 04:41:27;;;;;;;11.73;8.52;;;5.60;99.90;;;;;;2099693;28;20043;-69
2023/02/03 04:42:28;;;;;;;11.82;8.80;;;5.60;99.90;;;;;;2113589;27;20019;-69
2023/02/03 04:43:28;;;;;;;12.02;8.80;;;5.70;99.90;;;;;;2109032;28;20051;-69
2023/02/03 04:44:29;;;;;;;12.18;9.23;;;5.70;99.90;;;;;;2099875;28;20090;-70
2023/02/03 04:45:29;;;;;;;12.07;9.07;;;5.80;99.90;;;;;;2098894;28;20016;-70
2023/02/03 04:46:30;;;;;;;12.98;8.90;;;5.80;99.90;;;;;;2114162;27;20043;-67
2023/02/03 04:47:30;;;;;;;12.18;8.80;;;5.80;99.90;;;;;;2116420;27;20034;-68
2023/02/03 04:48:31;;;;;;;12.77;8.80;;;5.80;99.90;;;;;;2106779;28;20031;-71
2023/02/03 04:49:32;;;;;;;13.27;9.00;;;5.90;99.90;;;;;;2096253;28;20323;-69
2023/02/03 04:50:32;;;;;;;11.30;8.77;;;5.90;99.90;;;;;;2102386;28;20069;-69
2023/02/03 04:51:33;;;;;;;11.20;8.82;;;6.00;99.90;;;;;;2109145;27;20506;-69
2023/02/03 04:52:33;;;;;;;12.27;8.88;;;6.00;99.90;;;;;;2112919;27;20339;-69
2023/02/03 04:53:34;;;;;;;12.95;9.48;;;6.00;99.90;;;;;;2113004;27;20279;-69
2023/02/03 04:54:35;;;;;;;12.05;9.07;;;6.00;99.90;;;;;;2118170;27;20054;-70
2023/02/03 04:55:35;;;;;;;15.23;9.23;;;6.00;99.90;;;;;;2111335;27;20580;-69
2023/02/03 04:56:37;;;;;;;11.68;9.05;;;6.00;99.90;;;;;;2101189;28;20103;-69
2023/02/03 04:57:37;;;;;;;12.95;9.25;;;6.00;99.90;;;;;;2106075;27;20058;-69
2023/02/03 04:58:38;;;;;;;12.65;9.52;;;6.00;99.90;;;;;;2116586;27;20015;-69
2023/02/03 04:59:38;;;;;;;12.73;9.02;;;6.00;99.90;;;;;;2114397;27;20074;-69
2023/02/03 05:00:39;;;;;;;12.32;9.10;;;6.00;99.90;;;;;;2113297;27;20424;-68
2023/02/03 05:01:39;;;;;;;12.82;9.27;;;6.00;99.90;;;;;;2118402;27;20030;-69
2023/02/03 05:02:40;;;;;;;11.70;9.18;;;6.00;99.90;;;;;;2099435;28;20079;-68
2023/02/03 05:03:40;;;;;;;11.95;9.25;;;6.10;99.90;;;;;;2103444;28;20429;-69
2023/02/03 05:04:41;;;;;;;11.23;8.75;;;6.00;99.90;;;;;;2103983;27;20081;-68
2023/02/03 05:05:41;;;;;;;12.65;9.40;;;6.00;99.90;;;;;;2113818;27;20073;-69
2023/02/03 05:06:42;;;;;;;12.55;9.18;;;6.00;99.90;;;;;;2116292;27;20030;-68
2023/02/03 05:07:42;;;;;;;11.73;9.35;;;6.00;99.90;;;;;;2116320;27;20187;-69
2023/02/03 05:08:43;;;;;;;12.93;9.10;;;6.00;99.90;;;;;;2116322;27;20018;-70
2023/02/03 05:09:44;;;;;;;13.38;9.15;;;6.10;99.90;;;;;;2117844;27;20031;-69
2023/02/03 05:10:45;;;;;;;14.18;9.18;;;6.00;99.90;;;;;;2113582;27;20604;-69
2023/02/03 05:11:45;;;;;;;13.00;9.48;;;6.00;99.90;;;;;;2114307;27;20378;-69
2023/02/03 05:12:46;;;;;;;11.98;9.02;;;6.00;99.90;;;;;;2116505;27;20396;-69
2023/02/03 05:13:46;;;;;;;11.65;8.82;;;6.10;99.90;;;;;;2111070;27;20074;-69
2023/02/03 05:14:47;;;;;;;11.50;8.93;;;6.10;99.90;;;;;;2118359;27;20015;-68
2023/02/03 05:15:47;;;;;;;11.73;8.90;;;6.10;99.90;;;;;;2116177;27;20031;-69
2023/02/03 05:16:48;;;;;;;12.90;9.05;;;6.10;99.90;;;;;;2109726;27;20675;-69
2023/02/03 05:17:51;;;;;;;13.35;9.10;;;6.10;99.90;;;;;;2112672;27;20023;-69
2023/02/03 05:18:52;;;;;;;12.48;9.20;;;6.10;99.90;;;;;;2113913;27;20046;-68
2023/02/03 05:19:52;;;;;;;13.48;9.38;;;6.10;99.90;;;;;;2116449;27;20046;-69
2023/02/03 05:20:53;;;;;;;12.40;9.43;;;6.10;99.90;;;;;;2116200;27;20027;-68
2023/02/03 05:21:53;;;;;;;13.77;9.77;;;6.10;99.90;;;;;;2111077;27;20469;-69
2023/02/03 05:22:54;;;;;;;14.20;9.85;;;6.10;99.90;;;;;;2118496;27;20397;-70
2023/02/03 05:23:55;;;;;;;12.80;9.48;;;6.10;99.90;;;;;;2111862;27;22375;-73
2023/02/03 05:24:55;;;;;;;14.63;9.80;;;6.10;99.90;;;;;;2093777;28;20029;-73
2023/02/03 05:25:56;;;;;;;11.65;9.48;;;6.10;99.90;;;;;;2093694;28;20060;-71
2023/02/03 05:26:56;;;;;;;14.60;10.50;;;6.20;99.90;;;;;;2105428;28;20298;-71
2023/02/03 05:27:57;;;;;;;14.35;10.05;;;6.20;99.90;;;;;;2102905;28;20166;-70
2023/02/03 05:28:57;;;;;;;14.23;9.90;;;6.10;99.90;;;;;;2104776;28;20126;-69
2023/02/03 05:29:58;;;;;;;12.90;9.43;;;6.20;99.90;;;;;;2105752;28;20019;-75
2023/02/03 05:30:59;;;;;;;12.80;9.38;;;6.20;99.90;;;;;;2100872;28;20039;-72
2023/02/03 05:32:00;;;;;;;12.88;9.68;;;6.20;99.90;;;;;;2107277;28;20195;-73
2023/02/03 05:33:00;;;;;;;12.80;10.10;;;6.20;99.90;;;;;;2110787;27;20155;-75